createdAt,value
2023-03-20T00:01:31.279Z,9.60
2023-03-20T00:03:59.725Z,9.70
2023-03-20T00:06:29.893Z,9.60
2023-03-20T00:08:58.770Z,9.60
2023-03-20T00:11:37.527Z,9.50
2023-03-20T00:14:10.098Z,9.50
2023-03-20T00:16:40.305Z,9.40
2023-03-20T00:19:15.642Z,9.20
2023-03-20T00:21:46.002Z,9.20
2023-03-20T00:24:14.866Z,9.20
2023-03-20T00:26:44.314Z,9.10
2023-03-20T00:29:21.714Z,9.20
2023-03-20T00:31:50.372Z,9.20
2023-03-20T00:34:21.205Z,9.20
2023-03-20T00:36:49.733Z,9.30
2023-03-20T00:39:18.828Z,9.30
2023-03-20T00:41:50.892Z,9.30
2023-03-20T00:44:25.843Z,9.30
2023-03-20T00:46:59.209Z,9.20
2023-03-20T00:49:29.788Z,9.20
2023-03-20T00:51:59.391Z,9.20
2023-03-20T00:54:27.995Z,9.30
2023-03-20T00:57:00.633Z,9.20
2023-03-20T00:59:33.143Z,9.20
2023-03-20T01:02:03.037Z,9.20
2023-03-20T01:04:36.839Z,9.20
2023-03-20T01:07:07.184Z,9.10
2023-03-20T01:09:36.031Z,9.10
2023-03-20T01:12:08.491Z,9.10
2023-03-20T01:14:38.170Z,9.10
2023-03-20T01:17:06.907Z,9.20
2023-03-20T01:19:36.549Z,9.10
2023-03-20T01:22:05.099Z,9.20
2023-03-20T01:24:33.770Z,9.20
2023-03-20T01:27:04.102Z,9.30
2023-03-20T01:29:33.229Z,9.30
2023-03-20T01:32:03.845Z,9.40
2023-03-20T01:34:32.483Z,9.40
2023-03-20T01:37:00.958Z,9.40
2023-03-20T01:39:34.832Z,9.40
2023-03-20T01:42:05.897Z,9.50
2023-03-20T01:44:36.231Z,9.50
2023-03-20T01:47:17.541Z,9.50
2023-03-20T01:50:26.697Z,9.50
2023-03-20T01:53:08.174Z,9.60
2023-03-20T01:55:41.095Z,9.50
2023-03-20T01:58:14.293Z,9.60
2023-03-20T02:00:43.324Z,9.60
2023-03-20T02:03:14.123Z,9.60
2023-03-20T02:05:43.757Z,9.60
2023-03-20T02:08:23.998Z,9.60
2023-03-20T02:10:53.072Z,9.60
2023-03-20T02:13:22.259Z,9.60
2023-03-20T02:15:59.332Z,9.60
2023-03-20T02:18:29.771Z,9.60
2023-03-20T02:21:25.958Z,9.60
2023-03-20T02:24:21.690Z,9.60
2023-03-20T02:26:59.172Z,9.70
2023-03-20T02:30:07.611Z,9.60
2023-03-20T02:33:20.336Z,9.60
2023-03-20T02:36:38.246Z,9.70
2023-03-20T02:39:25.615Z,9.60
2023-03-20T02:42:01.846Z,9.60
2023-03-20T02:44:38.899Z,9.60
2023-03-20T02:47:12.604Z,9.60
2023-03-20T02:49:55.930Z,9.60
2023-03-20T02:52:33.510Z,9.50
2023-03-20T02:55:16.141Z,9.60
2023-03-20T02:57:53.073Z,9.60
2023-03-20T03:00:29.506Z,9.50
2023-03-20T03:03:07.261Z,9.40
2023-03-20T03:05:39.850Z,9.40
2023-03-20T03:08:13.789Z,9.40
2023-03-20T03:10:46.579Z,9.50
2023-03-20T03:13:18.338Z,9.50
2023-03-20T03:15:50.496Z,9.60
2023-03-20T03:18:22.823Z,9.60
2023-03-20T03:20:56.740Z,9.60
2023-03-20T03:23:30.913Z,9.60
2023-03-20T03:26:03.572Z,9.60
2023-03-20T03:28:37.638Z,9.60
2023-03-20T03:31:08.396Z,9.60
2023-03-20T03:33:40.545Z,9.60
2023-03-20T03:36:19.279Z,9.60
2023-03-20T03:38:55.555Z,9.70
2023-03-20T03:41:32.790Z,9.60
2023-03-20T03:44:12.053Z,9.50
2023-03-20T03:46:46.936Z,9.50
2023-03-20T03:49:22.276Z,9.30
2023-03-20T03:51:55.816Z,9.20
2023-03-20T03:54:27.139Z,9.20
2023-03-20T03:56:58.949Z,9.30
2023-03-20T03:59:32.951Z,9.30
2023-03-20T04:02:03.735Z,9.30
2023-03-20T04:04:33.892Z,9.30
2023-03-20T04:07:02.265Z,9.30
2023-03-20T04:09:30.638Z,9.40
2023-03-20T04:12:00.635Z,9.30
2023-03-20T04:14:29.740Z,9.40
2023-03-20T04:16:58.648Z,9.20
2023-03-20T04:19:27.013Z,9.20
2023-03-20T04:21:56.003Z,9.00
2023-03-20T04:24:24.402Z,9.20
2023-03-20T04:26:52.859Z,9.20
2023-03-20T04:29:22.902Z,9.30
2023-03-20T04:31:51.503Z,9.10
2023-03-20T04:34:19.850Z,8.80
2023-03-20T04:36:49.698Z,8.90
2023-03-20T04:39:18.088Z,9.10
2023-03-20T04:41:47.197Z,9.10
2023-03-20T04:44:15.785Z,8.90
2023-03-20T04:46:45.433Z,9.10
2023-03-20T04:49:13.997Z,9.10
2023-03-20T04:51:42.467Z,9.20
2023-03-20T04:54:10.935Z,8.90
2023-03-20T04:56:39.470Z,8.90
2023-03-20T04:59:08.168Z,8.90
2023-03-20T05:01:36.934Z,8.80
2023-03-20T05:04:07.269Z,8.90
2023-03-20T05:06:35.973Z,8.80
2023-03-20T05:09:04.266Z,8.70
2023-03-20T05:11:33.494Z,8.70
2023-03-20T05:14:01.889Z,8.70
2023-03-20T05:16:30.246Z,8.70
2023-03-20T05:18:58.892Z,8.50
2023-03-20T05:21:28.466Z,8.50
2023-03-20T05:23:56.842Z,8.50
2023-03-20T05:26:25.032Z,8.60
2023-03-20T05:28:53.579Z,8.70
2023-03-20T05:31:49.303Z,8.80
2023-03-20T05:34:18.183Z,8.70
2023-03-20T05:36:48.205Z,8.60
2023-03-20T05:39:16.617Z,8.70
2023-03-20T05:41:45.967Z,8.80
2023-03-20T05:44:14.562Z,8.80
2023-03-20T05:46:42.754Z,8.70
2023-03-20T05:49:11.176Z,8.60
2023-03-20T05:51:40.111Z,8.60
2023-03-20T05:54:12.874Z,8.60
2023-03-20T05:56:41.203Z,8.50
2023-03-20T05:59:09.985Z,8.60
2023-03-20T06:01:38.248Z,8.60
2023-03-20T06:04:08.494Z,8.80
2023-03-20T06:06:38.216Z,9.00
2023-03-20T06:09:07.284Z,8.80
2023-03-20T06:11:37.759Z,8.70
2023-03-20T06:14:06.337Z,8.70
2023-03-20T06:16:35.779Z,8.70
2023-03-20T06:19:03.988Z,8.80
2023-03-20T06:21:32.381Z,8.80
2023-03-20T06:24:01.315Z,8.70
2023-03-20T06:26:29.460Z,8.70
2023-03-20T06:28:59.735Z,8.60
2023-03-20T06:31:28.092Z,8.70
2023-03-20T06:33:56.619Z,8.70
2023-03-20T06:36:26.479Z,8.70
2023-03-20T06:38:56.618Z,8.70
2023-03-20T06:41:34.124Z,8.70
2023-03-20T06:44:05.257Z,8.70
2023-03-20T06:46:33.832Z,8.80
2023-03-20T06:49:03.291Z,8.80
2023-03-20T06:51:31.651Z,8.80
2023-03-20T06:54:01.023Z,8.70
2023-03-20T06:56:30.302Z,8.70
2023-03-20T06:59:00.938Z,8.70
2023-03-20T07:01:30.968Z,8.80
2023-03-20T07:03:59.375Z,8.70
2023-03-20T07:06:28.262Z,8.80
2023-03-20T07:08:57.157Z,8.70
2023-03-20T07:11:26.509Z,8.70
2023-03-20T07:13:55.026Z,8.60
2023-03-20T07:16:23.862Z,8.70
2023-03-20T07:18:53.814Z,8.70
2023-03-20T07:21:24.178Z,8.60
2023-03-20T07:23:52.627Z,8.60
2023-03-20T07:26:21.699Z,8.60
2023-03-20T07:28:50.160Z,8.70
2023-03-20T07:31:22.002Z,8.70
2023-03-20T07:33:50.952Z,8.80
2023-03-20T07:36:21.657Z,8.90
2023-03-20T07:38:50.889Z,9.00
2023-03-20T07:41:19.842Z,8.70
2023-03-20T07:43:48.100Z,8.70
2023-03-20T07:46:17.478Z,8.70
2023-03-20T07:48:46.829Z,8.70
2023-03-20T07:51:15.112Z,8.50
2023-03-20T07:53:44.659Z,8.50
2023-03-20T07:56:13.090Z,8.40
2023-03-20T07:58:41.928Z,8.40
2023-03-20T08:01:10.631Z,8.30
2023-03-20T08:03:39.973Z,8.30
2023-03-20T08:06:11.252Z,8.20
2023-03-20T08:08:42.178Z,8.20
2023-03-20T08:11:13.441Z,8.20
2023-03-20T08:13:41.906Z,8.30
2023-03-20T08:16:11.273Z,8.40
2023-03-20T08:18:40.163Z,8.40
2023-03-20T08:21:08.931Z,8.40
2023-03-20T08:23:38.048Z,8.40
2023-03-20T08:26:07.237Z,8.40
2023-03-20T08:28:47.040Z,8.50
2023-03-20T08:31:17.791Z,8.50
2023-03-20T08:33:47.447Z,8.40
2023-03-20T08:36:20.377Z,8.50
2023-03-20T08:38:49.697Z,8.50
2023-03-20T08:41:19.280Z,8.60
2023-03-20T08:43:49.693Z,8.50
2023-03-20T08:46:17.986Z,8.60
2023-03-20T08:48:47.917Z,8.60
2023-03-20T08:51:16.464Z,8.60
2023-03-20T08:53:44.947Z,8.60
2023-03-20T08:56:13.231Z,8.60
2023-03-20T08:58:41.518Z,8.70
2023-03-20T09:01:12.582Z,8.70
2023-03-20T09:03:41.266Z,8.80
2023-03-20T09:06:11.165Z,8.90
2023-03-20T09:08:41.906Z,8.90
2023-03-20T09:11:10.794Z,8.90
2023-03-20T09:13:39.281Z,9.00
2023-03-20T09:16:08.354Z,8.90
2023-03-20T09:18:38.343Z,8.80
2023-03-20T09:21:07.169Z,8.80
2023-03-20T09:23:35.727Z,8.80
2023-03-20T09:26:04.763Z,8.80
2023-03-20T09:28:32.994Z,8.90
2023-03-20T09:31:02.138Z,8.80
2023-03-20T09:33:32.201Z,9.00
2023-03-20T09:36:01.981Z,9.00
2023-03-20T09:38:30.872Z,9.10
2023-03-20T09:41:01.452Z,9.10
2023-03-20T09:43:51.927Z,9.10
2023-03-20T09:46:32.249Z,9.10
2023-03-20T09:49:08.870Z,9.20
2023-03-20T09:51:48.842Z,9.10
2023-03-20T09:54:53.294Z,9.00
2023-03-20T09:57:25.968Z,9.00
2023-03-20T09:59:58.796Z,8.80
2023-03-20T10:02:39.482Z,8.70
2023-03-20T10:05:18.531Z,8.70
2023-03-20T10:07:50.048Z,8.70
2023-03-20T10:10:20.674Z,8.90
2023-03-20T10:13:03.818Z,8.90
2023-03-20T10:15:44.776Z,9.00
2023-03-20T10:18:22.558Z,8.90
2023-03-20T10:20:58.806Z,9.00
2023-03-20T10:23:37.398Z,9.10
2023-03-20T10:26:09.839Z,9.00
2023-03-20T10:28:43.989Z,9.10
2023-03-20T10:31:26.439Z,9.10
2023-03-20T10:34:05.682Z,9.30
2023-03-20T10:36:47.458Z,9.40
2023-03-20T10:39:24.931Z,9.20
2023-03-20T10:41:56.581Z,9.20
2023-03-20T10:44:33.026Z,9.20
2023-03-20T10:47:03.367Z,9.20
2023-03-20T10:49:39.694Z,9.00
2023-03-20T10:52:16.574Z,9.00
2023-03-20T10:54:51.214Z,9.00
2023-03-20T10:58:00.136Z,9.00
2023-03-20T11:00:30.650Z,9.00
2023-03-20T11:03:29.161Z,9.20
2023-03-20T11:06:09.658Z,9.30
2023-03-20T11:08:41.983Z,9.70
2023-03-20T11:11:12.105Z,9.90
2023-03-20T11:13:43.129Z,9.80
2023-03-20T11:16:18.938Z,10.00
2023-03-20T11:18:49.555Z,10.40
2023-03-20T11:21:23.590Z,10.80
2023-03-20T11:23:53.210Z,10.90
2023-03-20T11:26:36.485Z,11.10
2023-03-20T11:29:10.093Z,11.20
2023-03-20T11:31:52.180Z,11.10
2023-03-20T11:34:27.842Z,10.90
2023-03-20T11:37:09.637Z,11.00
2023-03-20T11:39:40.180Z,10.80
2023-03-20T11:42:25.488Z,10.60
2023-03-20T11:45:05.224Z,10.70
2023-03-20T11:47:37.040Z,10.80
2023-03-20T11:50:08.340Z,11.00
2023-03-20T11:52:39.029Z,11.10
2023-03-20T11:55:23.590Z,11.30
2023-03-20T11:57:58.244Z,11.60
2023-03-20T12:00:30.002Z,11.70
2023-03-20T12:02:58.312Z,11.70
2023-03-20T12:05:32.907Z,11.80
2023-03-20T12:08:07.364Z,11.80
2023-03-20T12:10:40.693Z,11.90
2023-03-20T12:13:18.247Z,11.80
2023-03-20T12:15:50.391Z,11.60
2023-03-20T12:18:26.384Z,11.50
2023-03-20T12:21:05.636Z,11.60
2023-03-20T12:23:38.816Z,11.60
2023-03-20T12:26:10.206Z,11.80
2023-03-20T12:28:44.388Z,12.00
2023-03-20T12:31:27.391Z,11.90
2023-03-20T12:34:01.512Z,12.10
2023-03-20T12:36:34.953Z,12.20
2023-03-20T12:39:09.120Z,11.90
2023-03-20T12:41:50.960Z,11.80
2023-03-20T12:44:31.107Z,12.20
2023-03-20T12:47:16.753Z,12.40
2023-03-20T12:49:54.399Z,12.70
2023-03-20T12:52:32.294Z,12.90
2023-03-20T12:55:18.245Z,13.10
2023-03-20T12:58:02.816Z,13.30
2023-03-20T13:00:39.023Z,13.30
2023-03-20T13:03:26.495Z,13.10
2023-03-20T13:06:58.565Z,13.00
2023-03-20T13:09:44.929Z,12.90
2023-03-20T13:12:24.671Z,12.70
2023-03-20T13:15:03.295Z,12.80
2023-03-20T13:17:37.402Z,12.90
2023-03-20T13:20:23.319Z,12.90
2023-03-20T13:23:04.438Z,12.90
2023-03-20T13:25:54.733Z,13.00
2023-03-20T13:28:30.953Z,12.90
2023-03-20T13:31:07.562Z,13.00
2023-03-20T13:33:48.760Z,12.80
2023-03-20T13:36:29.254Z,12.80
2023-03-20T13:39:04.083Z,12.60
2023-03-20T13:41:35.368Z,12.70
2023-03-20T13:44:06.695Z,12.70
2023-03-20T13:46:40.306Z,12.70
2023-03-20T13:49:17.433Z,12.70
2023-03-20T13:51:55.012Z,12.50
2023-03-20T13:54:57.258Z,12.60
2023-03-20T13:57:49.375Z,12.40
2023-03-20T14:00:29.186Z,12.30
2023-03-20T14:03:16.215Z,12.30
2023-03-20T14:05:47.558Z,12.20
2023-03-20T14:08:33.773Z,12.00
2023-03-20T14:11:16.100Z,11.80
2023-03-20T14:13:48.014Z,11.80
2023-03-20T14:16:20.121Z,11.70
2023-03-20T14:18:51.771Z,11.60
2023-03-20T14:21:25.183Z,11.50
2023-03-20T14:24:02.053Z,11.30
2023-03-20T14:26:33.041Z,11.40
2023-03-20T14:29:04.569Z,11.40
2023-03-20T14:31:38.367Z,11.50
2023-03-20T14:34:16.956Z,11.50
2023-03-20T14:36:58.629Z,11.50
2023-03-20T14:39:37.873Z,11.80
2023-03-20T14:42:22.543Z,11.80
2023-03-20T14:45:43.459Z,12.00
2023-03-20T14:48:19.748Z,12.10
2023-03-20T14:51:03.242Z,12.20
2023-03-20T14:53:34.165Z,12.20
2023-03-20T14:56:11.686Z,12.20
2023-03-20T14:58:54.708Z,12.10
2023-03-20T15:01:35.317Z,12.00
2023-03-20T15:04:09.196Z,12.10
2023-03-20T15:06:46.160Z,11.90
2023-03-20T15:09:16.917Z,11.70
2023-03-20T15:11:45.330Z,11.50
2023-03-20T15:14:21.494Z,11.50
2023-03-20T15:16:52.261Z,11.40
2023-03-20T15:19:21.464Z,11.50
2023-03-20T15:21:51.252Z,11.50
2023-03-20T15:24:24.782Z,11.50
2023-03-20T15:26:55.568Z,11.50
2023-03-20T15:29:24.557Z,11.40
2023-03-20T15:32:12.514Z,11.50
2023-03-20T15:34:44.111Z,11.40
2023-03-20T15:37:16.582Z,11.30
2023-03-20T15:39:48.770Z,11.30
2023-03-20T15:42:21.377Z,11.40
2023-03-20T15:44:51.906Z,11.30
2023-03-20T15:47:22.302Z,11.20
2023-03-20T15:49:53.692Z,11.10
2023-03-20T15:52:28.863Z,11.00
2023-03-20T15:55:00.930Z,10.90
2023-03-20T15:57:35.751Z,10.90
2023-03-20T16:00:07.401Z,10.70
2023-03-20T16:02:38.346Z,10.60
2023-03-20T16:05:13.199Z,10.60
2023-03-20T16:07:42.651Z,10.60
2023-03-20T16:10:20.648Z,10.50
2023-03-20T16:12:51.204Z,10.50
2023-03-20T16:15:25.298Z,10.30
2023-03-20T16:17:57.364Z,10.30
2023-03-20T16:20:27.032Z,10.30
2023-03-20T16:23:00.744Z,10.30
2023-03-20T16:25:30.677Z,10.20
2023-03-20T16:28:00.228Z,10.20
2023-03-20T16:30:32.992Z,10.10
2023-03-20T16:33:03.316Z,10.10
2023-03-20T16:35:41.186Z,10.00
2023-03-20T16:38:17.665Z,9.90
2023-03-20T16:40:49.762Z,9.90
2023-03-20T16:43:21.184Z,10.00
2023-03-20T16:45:54.576Z,10.00
2023-03-20T16:48:31.987Z,9.90
2023-03-20T16:51:05.296Z,9.90
2023-03-20T16:53:41.480Z,9.80
2023-03-20T16:56:17.331Z,9.80
2023-03-20T16:58:47.021Z,9.80
2023-03-20T17:01:20.131Z,9.70
2023-03-20T17:03:52.287Z,9.70
2023-03-20T17:06:39.430Z,9.60
2023-03-20T17:09:27.017Z,9.60
2023-03-20T17:12:07.295Z,9.50
2023-03-20T17:14:35.607Z,9.60
2023-03-20T17:17:03.993Z,9.50
2023-03-20T17:19:34.118Z,9.40
2023-03-20T17:22:05.557Z,9.40
2023-03-20T17:24:33.934Z,9.40
2023-03-20T17:27:03.935Z,9.30
2023-03-20T17:29:32.602Z,9.20
2023-03-20T17:32:00.876Z,9.20
2023-03-20T17:34:29.583Z,9.30
2023-03-20T17:37:00.044Z,9.20
2023-03-20T17:39:29.141Z,9.10
2023-03-20T17:41:58.028Z,9.20
2023-03-20T17:44:28.230Z,9.20
2023-03-20T17:46:59.063Z,9.10
2023-03-20T17:49:28.733Z,9.10
2023-03-20T17:51:57.708Z,9.20
2023-03-20T17:54:29.437Z,9.20
2023-03-20T17:56:57.869Z,9.10
2023-03-20T17:59:31.161Z,9.20
2023-03-20T18:02:00.244Z,9.00
2023-03-20T18:04:29.925Z,9.10
2023-03-20T18:06:58.853Z,9.00
2023-03-20T18:09:27.538Z,8.90
2023-03-20T18:11:56.727Z,8.80
2023-03-20T18:14:27.850Z,8.70
2023-03-20T18:16:56.370Z,8.60
2023-03-20T18:19:28.382Z,8.50
2023-03-20T18:21:58.668Z,8.50
2023-03-20T18:24:27.745Z,8.40
2023-03-20T18:26:57.319Z,8.30
2023-03-20T18:29:27.097Z,8.30
2023-03-20T18:31:55.532Z,8.20
2023-03-20T18:34:23.883Z,8.30
2023-03-20T18:36:52.854Z,8.20
2023-03-20T18:39:22.974Z,8.20
2023-03-20T18:41:51.987Z,8.20
2023-03-20T18:44:20.401Z,8.20
2023-03-20T18:46:51.063Z,8.20
2023-03-20T18:49:21.204Z,8.20
2023-03-20T18:51:50.618Z,8.10
2023-03-20T18:54:19.693Z,8.10
2023-03-20T18:56:49.881Z,8.10
2023-03-20T18:59:19.373Z,8.10
2023-03-20T19:01:53.073Z,8.00
2023-03-20T19:04:23.138Z,8.10
2023-03-20T19:06:51.480Z,8.10
2023-03-20T19:09:21.763Z,8.00
2023-03-20T19:11:50.364Z,8.00
2023-03-20T19:14:19.584Z,8.10
2023-03-20T19:16:48.369Z,8.00
2023-03-20T19:19:18.778Z,8.00
2023-03-20T19:21:47.030Z,8.00
2023-03-20T19:24:15.312Z,7.90
2023-03-20T19:26:43.609Z,8.00
2023-03-20T19:29:14.126Z,7.90
2023-03-20T19:31:42.419Z,7.90
2023-03-20T19:34:34.987Z,7.90
2023-03-20T19:37:01.338Z,7.90
2023-03-20T19:39:31.067Z,7.90
2023-03-20T19:42:18.481Z,7.80
2023-03-20T19:44:47.648Z,7.80
2023-03-20T19:47:15.978Z,7.80
2023-03-20T19:49:44.772Z,7.90
2023-03-20T19:52:23.777Z,7.80
2023-03-20T19:55:02.109Z,7.80
2023-03-20T19:57:31.811Z,7.80
2023-03-20T20:02:48.932Z,7.70
2023-03-20T20:05:21.933Z,7.70
2023-03-20T20:08:24.237Z,7.70
2023-03-20T20:10:43.026Z,7.80
2023-03-20T20:13:17.823Z,7.80
2023-03-20T20:15:48.088Z,7.70
2023-03-20T20:18:21.226Z,7.60
2023-03-20T20:21:59.656Z,7.60
2023-03-20T20:23:42.541Z,7.60
2023-03-20T20:26:12.327Z,7.60
2023-03-20T20:28:40.801Z,7.60
2023-03-20T20:31:08.913Z,7.60
2023-03-20T20:33:37.572Z,7.60
2023-03-20T20:36:58.940Z,7.60
2023-03-20T20:39:02.519Z,7.60
2023-03-20T20:41:31.125Z,7.60
2023-03-20T20:44:17.568Z,7.50
2023-03-20T20:46:46.866Z,7.40
2023-03-20T20:49:19.581Z,7.30
2023-03-20T20:51:48.219Z,7.40
2023-03-20T20:54:20.950Z,7.40
2023-03-20T20:56:49.426Z,7.30
2023-03-20T20:59:18.076Z,7.10
2023-03-20T21:01:46.877Z,7.10
2023-03-20T21:04:15.485Z,7.10
2023-03-20T21:07:09.863Z,7.20
2023-03-20T21:09:39.599Z,7.10
2023-03-20T21:12:22.665Z,7.10
2023-03-20T21:14:59.919Z,7.10
2023-03-20T21:17:30.684Z,7.00
2023-03-20T21:19:58.946Z,6.90
2023-03-20T21:22:27.451Z,7.00
2023-03-20T21:25:13.122Z,6.90
2023-03-20T21:27:42.751Z,6.90
2023-03-20T21:30:13.504Z,6.90
2023-03-20T21:32:41.898Z,6.90
2023-03-20T21:35:10.645Z,6.80
2023-03-20T21:40:29.805Z,6.70
2023-03-20T21:42:59.457Z,6.70
2023-03-20T21:48:56.292Z,6.70
2023-03-20T21:52:23.995Z,6.80
2023-03-20T22:00:14.155Z,6.80
2023-03-20T22:02:27.772Z,6.90
2023-03-20T22:08:38.083Z,6.90
2023-03-20T22:14:30.907Z,6.90
2023-03-20T22:17:17.644Z,6.90
2023-03-20T22:19:50.276Z,7.00
2023-03-20T22:25:27.562Z,7.00
2023-03-20T22:28:15.925Z,7.10
2023-03-20T22:31:22.569Z,7.00
2023-03-20T22:39:22.838Z,7.00
2023-03-20T22:42:40.389Z,7.00
2023-03-20T22:44:57.304Z,7.00
2023-03-20T22:47:23.111Z,7.00
2023-03-20T22:49:54.965Z,6.90
2023-03-20T22:52:32.087Z,6.90
2023-03-20T22:55:07.512Z,7.00
2023-03-20T22:57:45.579Z,6.90
2023-03-20T23:00:22.154Z,7.00
2023-03-20T23:02:54.963Z,6.90
2023-03-20T23:05:25.795Z,6.90
2023-03-20T23:07:53.997Z,7.00
2023-03-20T23:10:25.394Z,7.00
2023-03-20T23:12:53.820Z,7.00
2023-03-20T23:15:23.015Z,7.00
2023-03-20T23:17:52.971Z,7.00
2023-03-20T23:20:21.853Z,7.00
2023-03-20T23:22:50.752Z,7.00
2023-03-20T23:25:30.985Z,7.10
2023-03-20T23:28:06.840Z,7.00
2023-03-20T23:30:46.575Z,7.00
2023-03-20T23:33:19.842Z,7.10
2023-03-20T23:35:48.765Z,7.10
2023-03-20T23:38:17.914Z,7.00
2023-03-20T23:40:50.142Z,7.10
2023-03-20T23:43:18.892Z,7.10
2023-03-20T23:45:47.293Z,7.10
2023-03-20T23:48:16.906Z,7.10
2023-03-20T23:50:52.890Z,7.10
2023-03-20T23:53:21.779Z,7.10
2023-03-20T23:55:51.790Z,7.10
2023-03-20T23:58:20.972Z,7.10
